Cedar Hill, Missouri
Current Conditions -  °F | °C
As of 6:54 AM on Friday 19 Dec 2014 (Local Time) from KSUS Reporting Station
Overcast Overcast  
Wind Chill: 26°   Ceiling: 2600
Heat Index: 32°   Visibility: 8mi
Dew Point: 28°   Wind: 6mph
Humidity: 85%   Direction: 80°E
Pressure: 30.29"   Gusts: NA
Location:  38.35°N, 90.64°W
Report Text: KSUS 191254Z 08005KT 8SM BKN026 OVC065 00/M02 A3029 RMK AO2 SLP266 T00001022
Loading
Personal Weather Stations






























Interactive Weather Map New forecast layout! Learn more

10-Day Weather Forecast

Advertisements
Track Severe Weather on mobile